sensor_id;sensor_type;location;lat;lon;timestamp;P1;durP1;ratioP1;P2;durP2;ratioP2
75280;SDS011;63874;47.230;39.620;2023-03-23T00:02:14;50.75;;;18.48;;
75280;SDS011;63874;47.230;39.620;2023-03-23T00:04:41;51.30;;;19.02;;
75280;SDS011;63874;47.230;39.620;2023-03-23T00:07:08;54.72;;;19.48;;
75280;SDS011;63874;47.230;39.620;2023-03-23T00:09:34;48.88;;;15.82;;
75280;SDS011;63874;47.230;39.620;2023-03-23T00:12:06;55.20;;;19.20;;
75280;SDS011;63874;47.230;39.620;2023-03-23T00:14:32;47.95;;;18.58;;
75280;SDS011;63874;47.230;39.620;2023-03-23T00:17:07;51.78;;;17.33;;
75280;SDS011;63874;47.230;39.620;2023-03-23T00:19:35;62.55;;;19.65;;
75280;SDS011;63874;47.230;39.620;2023-03-23T00:22:17;54.03;;;17.17;;
75280;SDS011;63874;47.230;39.620;2023-03-23T00:24:46;53.25;;;18.92;;
75280;SDS011;63874;47.230;39.620;2023-03-23T00:27:15;59.10;;;18.40;;
75280;SDS011;63874;47.230;39.620;2023-03-23T00:29:42;51.45;;;17.77;;
75280;SDS011;63874;47.230;39.620;2023-03-23T00:32:10;57.30;;;18.00;;
75280;SDS011;63874;47.230;39.620;2023-03-23T00:34:38;59.17;;;18.90;;
75280;SDS011;63874;47.230;39.620;2023-03-23T00:37:08;57.05;;;20.40;;
75280;SDS011;63874;47.230;39.620;2023-03-23T00:39:34;47.85;;;19.13;;
75280;SDS011;63874;47.230;39.620;2023-03-23T00:42:04;58.03;;;19.75;;
75280;SDS011;63874;47.230;39.620;2023-03-23T00:44:31;56.78;;;19.35;;
75280;SDS011;63874;47.230;39.620;2023-03-23T00:47:04;56.08;;;19.55;;
75280;SDS011;63874;47.230;39.620;2023-03-23T00:49:31;55.75;;;18.17;;
75280;SDS011;63874;47.230;39.620;2023-03-23T00:52:00;57.58;;;18.65;;
75280;SDS011;63874;47.230;39.620;2023-03-23T00:54:27;59.40;;;21.17;;
75280;SDS011;63874;47.230;39.620;2023-03-23T00:56:53;46.97;;;17.20;;
75280;SDS011;63874;47.230;39.620;2023-03-23T00:59:20;62.28;;;22.80;;
75280;SDS011;63874;47.230;39.620;2023-03-23T01:01:46;59.65;;;19.88;;
75280;SDS011;63874;47.230;39.620;2023-03-23T01:04:13;55.17;;;18.92;;
75280;SDS011;63874;47.230;39.620;2023-03-23T01:06:40;55.85;;;20.13;;
75280;SDS011;63874;47.230;39.620;2023-03-23T01:09:15;63.30;;;20.27;;
75280;SDS011;63874;47.230;39.620;2023-03-23T01:11:42;53.42;;;17.95;;
75280;SDS011;63874;47.230;39.620;2023-03-23T01:14:10;57.20;;;19.75;;
75280;SDS011;63874;47.230;39.620;2023-03-23T01:16:37;51.38;;;18.00;;
75280;SDS011;63874;47.230;39.620;2023-03-23T01:19:03;59.35;;;18.90;;
75280;SDS011;63874;47.230;39.620;2023-03-23T01:21:29;50.05;;;16.45;;
75280;SDS011;63874;47.230;39.620;2023-03-23T01:23:55;51.45;;;18.30;;
75280;SDS011;63874;47.230;39.620;2023-03-23T01:26:22;61.03;;;19.67;;
75280;SDS011;63874;47.230;39.620;2023-03-23T01:28:50;58.58;;;20.92;;
75280;SDS011;63874;47.230;39.620;2023-03-23T01:31:18;54.28;;;17.27;;
75280;SDS011;63874;47.230;39.620;2023-03-23T01:33:46;57.00;;;19.17;;
75280;SDS011;63874;47.230;39.620;2023-03-23T01:36:14;59.45;;;18.77;;
75280;SDS011;63874;47.230;39.620;2023-03-23T01:38:43;56.53;;;20.33;;
75280;SDS011;63874;47.230;39.620;2023-03-23T01:41:10;59.20;;;17.35;;
75280;SDS011;63874;47.230;39.620;2023-03-23T01:46:28;66.53;;;20.67;;
75280;SDS011;63874;47.230;39.620;2023-03-23T01:49:17;66.25;;;21.25;;
75280;SDS011;63874;47.230;39.620;2023-03-23T01:51:48;57.80;;;19.63;;
75280;SDS011;63874;47.230;39.620;2023-03-23T01:54:18;60.38;;;19.08;;
75280;SDS011;63874;47.230;39.620;2023-03-23T01:56:48;59.55;;;21.58;;
75280;SDS011;63874;47.230;39.620;2023-03-23T01:59:19;61.00;;;20.80;;
75280;SDS011;63874;47.230;39.620;2023-03-23T02:01:55;56.33;;;20.65;;
75280;SDS011;63874;47.230;39.620;2023-03-23T02:04:23;60.38;;;20.65;;
75280;SDS011;63874;47.230;39.620;2023-03-23T02:06:51;58.72;;;20.75;;
75280;SDS011;63874;47.230;39.620;2023-03-23T02:09:21;67.43;;;23.15;;
75280;SDS011;63874;47.230;39.620;2023-03-23T02:11:48;67.10;;;22.85;;
75280;SDS011;63874;47.230;39.620;2023-03-23T02:14:16;61.42;;;21.55;;
75280;SDS011;63874;47.230;39.620;2023-03-23T02:29:16;54.90;;;18.95;;
75280;SDS011;63874;47.230;39.620;2023-03-23T02:31:45;64.80;;;20.73;;
75280;SDS011;63874;47.230;39.620;2023-03-23T02:39:56;53.47;;;16.98;;
75280;SDS011;63874;47.230;39.620;2023-03-23T02:42:27;67.85;;;20.67;;
75280;SDS011;63874;47.230;39.620;2023-03-23T02:44:58;56.13;;;19.13;;
75280;SDS011;63874;47.230;39.620;2023-03-23T02:47:29;59.47;;;20.00;;
75280;SDS011;63874;47.230;39.620;2023-03-23T02:49:55;71.70;;;20.65;;
75280;SDS011;63874;47.230;39.620;2023-03-23T02:52:25;61.35;;;18.35;;
75280;SDS011;63874;47.230;39.620;2023-03-23T02:54:56;64.65;;;21.63;;
75280;SDS011;63874;47.230;39.620;2023-03-23T02:57:25;62.65;;;21.05;;
75280;SDS011;63874;47.230;39.620;2023-03-23T02:59:55;68.80;;;19.38;;
75280;SDS011;63874;47.230;39.620;2023-03-23T03:02:22;55.85;;;17.77;;
75280;SDS011;63874;47.230;39.620;2023-03-23T03:18:56;60.33;;;21.35;;
75280;SDS011;63874;47.230;39.620;2023-03-23T03:21:27;72.82;;;22.27;;
75280;SDS011;63874;47.230;39.620;2023-03-23T03:23:59;75.38;;;22.70;;
75280;SDS011;63874;47.230;39.620;2023-03-23T03:26:28;63.65;;;18.45;;
75280;SDS011;63874;47.230;39.620;2023-03-23T03:29:08;64.63;;;21.50;;
75280;SDS011;63874;47.230;39.620;2023-03-23T03:31:41;69.45;;;20.67;;
75280;SDS011;63874;47.230;39.620;2023-03-23T03:34:11;85.18;;;20.83;;
75280;SDS011;63874;47.230;39.620;2023-03-23T03:36:45;56.78;;;17.65;;
75280;SDS011;63874;47.230;39.620;2023-03-23T03:39:13;61.63;;;20.83;;
75280;SDS011;63874;47.230;39.620;2023-03-23T03:41:42;61.13;;;18.20;;
75280;SDS011;63874;47.230;39.620;2023-03-23T03:44:10;70.30;;;22.58;;
75280;SDS011;63874;47.230;39.620;2023-03-23T03:46:36;70.70;;;19.90;;
75280;SDS011;63874;47.230;39.620;2023-03-23T03:49:03;82.32;;;21.77;;
75280;SDS011;63874;47.230;39.620;2023-03-23T03:51:34;65.05;;;18.73;;
75280;SDS011;63874;47.230;39.620;2023-03-23T03:54:02;59.05;;;19.45;;
75280;SDS011;63874;47.230;39.620;2023-03-23T03:56:28;64.93;;;23.67;;
75280;SDS011;63874;47.230;39.620;2023-03-23T03:59:13;60.70;;;19.95;;
75280;SDS011;63874;47.230;39.620;2023-03-23T04:01:52;70.93;;;23.23;;
75280;SDS011;63874;47.230;39.620;2023-03-23T04:04:21;71.30;;;20.88;;
75280;SDS011;63874;47.230;39.620;2023-03-23T04:06:49;73.80;;;23.38;;
75280;SDS011;63874;47.230;39.620;2023-03-23T04:09:16;72.40;;;20.33;;
75280;SDS011;63874;47.230;39.620;2023-03-23T04:11:42;69.10;;;20.35;;
75280;SDS011;63874;47.230;39.620;2023-03-23T04:14:28;63.25;;;19.85;;
75280;SDS011;63874;47.230;39.620;2023-03-23T04:16:54;60.95;;;19.85;;
75280;SDS011;63874;47.230;39.620;2023-03-23T04:19:23;76.13;;;21.15;;
75280;SDS011;63874;47.230;39.620;2023-03-23T04:21:49;69.70;;;18.00;;
75280;SDS011;63874;47.230;39.620;2023-03-23T04:24:17;59.35;;;17.92;;
75280;SDS011;63874;47.230;39.620;2023-03-23T04:26:47;68.45;;;20.02;;
75280;SDS011;63874;47.230;39.620;2023-03-23T04:29:21;65.47;;;20.20;;
75280;SDS011;63874;47.230;39.620;2023-03-23T04:31:48;72.65;;;23.73;;
75280;SDS011;63874;47.230;39.620;2023-03-23T04:34:28;62.50;;;17.95;;
75280;SDS011;63874;47.230;39.620;2023-03-23T04:37:00;70.43;;;22.80;;
75280;SDS011;63874;47.230;39.620;2023-03-23T04:39:28;67.07;;;20.98;;
75280;SDS011;63874;47.230;39.620;2023-03-23T04:41:57;70.47;;;20.75;;
75280;SDS011;63874;47.230;39.620;2023-03-23T04:44:44;76.10;;;21.48;;
75280;SDS011;63874;47.230;39.620;2023-03-23T04:47:20;82.57;;;22.45;;
75280;SDS011;63874;47.230;39.620;2023-03-23T04:49:53;85.10;;;22.63;;
75280;SDS011;63874;47.230;39.620;2023-03-23T04:52:26;75.80;;;21.75;;
75280;SDS011;63874;47.230;39.620;2023-03-23T04:54:58;72.18;;;22.50;;
75280;SDS011;63874;47.230;39.620;2023-03-23T04:57:27;66.60;;;21.23;;
75280;SDS011;63874;47.230;39.620;2023-03-23T05:02:44;68.40;;;21.10;;
75280;SDS011;63874;47.230;39.620;2023-03-23T05:05:18;62.47;;;22.17;;
75280;SDS011;63874;47.230;39.620;2023-03-23T05:07:46;66.82;;;21.17;;
75280;SDS011;63874;47.230;39.620;2023-03-23T05:10:16;66.78;;;21.08;;
75280;SDS011;63874;47.230;39.620;2023-03-23T05:12:42;75.78;;;20.98;;
75280;SDS011;63874;47.230;39.620;2023-03-23T05:15:11;69.97;;;21.02;;
75280;SDS011;63874;47.230;39.620;2023-03-23T05:17:38;62.72;;;20.55;;
75280;SDS011;63874;47.230;39.620;2023-03-23T05:20:17;78.93;;;22.45;;
75280;SDS011;63874;47.230;39.620;2023-03-23T05:22:51;86.03;;;22.15;;
75280;SDS011;63874;47.230;39.620;2023-03-23T05:25:24;75.68;;;21.23;;
75280;SDS011;63874;47.230;39.620;2023-03-23T05:27:57;63.30;;;17.98;;
75280;SDS011;63874;47.230;39.620;2023-03-23T05:30:50;60.45;;;19.60;;
75280;SDS011;63874;47.230;39.620;2023-03-23T05:33:19;80.75;;;22.63;;
75280;SDS011;63874;47.230;39.620;2023-03-23T05:35:50;69.85;;;21.75;;
75280;SDS011;63874;47.230;39.620;2023-03-23T05:40:48;65.78;;;20.10;;
75280;SDS011;63874;47.230;39.620;2023-03-23T05:43:18;63.85;;;20.30;;
75280;SDS011;63874;47.230;39.620;2023-03-23T05:46:03;75.18;;;19.08;;
75280;SDS011;63874;47.230;39.620;2023-03-23T05:48:30;65.00;;;18.55;;
75280;SDS011;63874;47.230;39.620;2023-03-23T05:50:57;67.63;;;19.00;;
75280;SDS011;63874;47.230;39.620;2023-03-23T05:53:24;72.13;;;20.35;;
75280;SDS011;63874;47.230;39.620;2023-03-23T05:55:52;70.97;;;21.17;;
75280;SDS011;63874;47.230;39.620;2023-03-23T05:58:37;67.70;;;20.85;;
75280;SDS011;63874;47.230;39.620;2023-03-23T06:01:07;67.30;;;21.25;;
75280;SDS011;63874;47.230;39.620;2023-03-23T06:03:33;83.60;;;20.95;;
75280;SDS011;63874;47.230;39.620;2023-03-23T06:06:17;101.95;;;21.88;;
75280;SDS011;63874;47.230;39.620;2023-03-23T06:08:52;76.15;;;20.00;;
75280;SDS011;63874;47.230;39.620;2023-03-23T06:11:29;76.50;;;20.48;;
75280;SDS011;63874;47.230;39.620;2023-03-23T06:14:15;73.18;;;20.13;;
75280;SDS011;63874;47.230;39.620;2023-03-23T06:16:43;62.92;;;20.65;;
75280;SDS011;63874;47.230;39.620;2023-03-23T06:19:12;66.03;;;19.17;;
75280;SDS011;63874;47.230;39.620;2023-03-23T06:21:45;78.35;;;21.65;;
75280;SDS011;63874;47.230;39.620;2023-03-23T06:24:23;83.63;;;23.80;;
75280;SDS011;63874;47.230;39.620;2023-03-23T06:26:51;73.93;;;23.08;;
75280;SDS011;63874;47.230;39.620;2023-03-23T06:29:20;77.53;;;21.67;;
75280;SDS011;63874;47.230;39.620;2023-03-23T06:31:54;82.57;;;24.73;;
75280;SDS011;63874;47.230;39.620;2023-03-23T06:34:24;67.95;;;19.88;;
75280;SDS011;63874;47.230;39.620;2023-03-23T06:37:09;71.95;;;22.33;;
75280;SDS011;63874;47.230;39.620;2023-03-23T06:39:44;72.45;;;20.25;;
75280;SDS011;63874;47.230;39.620;2023-03-23T06:42:19;65.15;;;19.45;;
75280;SDS011;63874;47.230;39.620;2023-03-23T06:44:53;65.90;;;20.20;;
75280;SDS011;63874;47.230;39.620;2023-03-23T06:47:22;70.68;;;20.58;;
75280;SDS011;63874;47.230;39.620;2023-03-23T06:49:49;66.13;;;16.13;;
75280;SDS011;63874;47.230;39.620;2023-03-23T06:52:22;61.40;;;15.68;;
75280;SDS011;63874;47.230;39.620;2023-03-23T06:54:49;66.40;;;19.92;;
75280;SDS011;63874;47.230;39.620;2023-03-23T06:57:17;49.63;;;16.67;;
75280;SDS011;63874;47.230;39.620;2023-03-23T06:59:45;63.95;;;17.02;;
75280;SDS011;63874;47.230;39.620;2023-03-23T07:02:12;61.33;;;16.77;;
75280;SDS011;63874;47.230;39.620;2023-03-23T07:04:44;56.92;;;17.02;;
75280;SDS011;63874;47.230;39.620;2023-03-23T07:07:19;56.65;;;17.10;;
75280;SDS011;63874;47.230;39.620;2023-03-23T07:10:06;45.53;;;17.50;;
75280;SDS011;63874;47.230;39.620;2023-03-23T07:12:34;61.15;;;19.45;;
75280;SDS011;63874;47.230;39.620;2023-03-23T07:15:02;50.25;;;17.17;;
75280;SDS011;63874;47.230;39.620;2023-03-23T07:17:28;59.72;;;14.50;;
75280;SDS011;63874;47.230;39.620;2023-03-23T07:20:17;57.60;;;17.55;;
75280;SDS011;63874;47.230;39.620;2023-03-23T07:22:44;54.67;;;16.75;;
75280;SDS011;63874;47.230;39.620;2023-03-23T07:25:26;50.30;;;17.67;;
75280;SDS011;63874;47.230;39.620;2023-03-23T07:27:54;71.45;;;17.58;;
75280;SDS011;63874;47.230;39.620;2023-03-23T07:30:20;73.47;;;19.02;;
75280;SDS011;63874;47.230;39.620;2023-03-23T07:32:46;71.05;;;19.95;;
75280;SDS011;63874;47.230;39.620;2023-03-23T07:35:12;70.63;;;20.20;;
75280;SDS011;63874;47.230;39.620;2023-03-23T07:37:58;57.08;;;20.00;;
75280;SDS011;63874;47.230;39.620;2023-03-23T07:40:25;62.97;;;20.00;;
75280;SDS011;63874;47.230;39.620;2023-03-23T07:42:57;69.75;;;17.45;;
75280;SDS011;63874;47.230;39.620;2023-03-23T07:45:34;58.25;;;16.50;;
75280;SDS011;63874;47.230;39.620;2023-03-23T07:48:00;57.58;;;18.77;;
75280;SDS011;63874;47.230;39.620;2023-03-23T07:50:27;53.53;;;17.90;;
75280;SDS011;63874;47.230;39.620;2023-03-23T07:52:55;55.30;;;16.58;;
75280;SDS011;63874;47.230;39.620;2023-03-23T07:55:24;44.88;;;15.48;;
75280;SDS011;63874;47.230;39.620;2023-03-23T07:58:10;48.33;;;15.95;;
75280;SDS011;63874;47.230;39.620;2023-03-23T08:00:37;41.58;;;14.45;;
75280;SDS011;63874;47.230;39.620;2023-03-23T08:03:06;47.78;;;15.68;;
75280;SDS011;63874;47.230;39.620;2023-03-23T08:05:45;46.17;;;16.55;;
75280;SDS011;63874;47.230;39.620;2023-03-23T08:08:40;48.08;;;13.98;;
75280;SDS011;63874;47.230;39.620;2023-03-23T08:11:25;45.92;;;13.57;;
75280;SDS011;63874;47.230;39.620;2023-03-23T08:14:12;58.70;;;15.35;;
75280;SDS011;63874;47.230;39.620;2023-03-23T08:16:57;48.10;;;14.30;;
75280;SDS011;63874;47.230;39.620;2023-03-23T08:19:53;46.60;;;13.30;;
75280;SDS011;63874;47.230;39.620;2023-03-23T08:22:40;46.95;;;16.67;;
75280;SDS011;63874;47.230;39.620;2023-03-23T08:25:27;51.72;;;15.05;;
75280;SDS011;63874;47.230;39.620;2023-03-23T08:28:22;48.45;;;13.75;;
75280;SDS011;63874;47.230;39.620;2023-03-23T08:31:14;55.80;;;16.42;;
75280;SDS011;63874;47.230;39.620;2023-03-23T08:34:11;48.53;;;15.60;;
75280;SDS011;63874;47.230;39.620;2023-03-23T08:36:37;44.90;;;15.35;;
75280;SDS011;63874;47.230;39.620;2023-03-23T08:39:38;41.88;;;14.30;;
75280;SDS011;63874;47.230;39.620;2023-03-23T08:42:27;42.67;;;12.70;;
75280;SDS011;63874;47.230;39.620;2023-03-23T08:45:07;45.25;;;12.57;;
75280;SDS011;63874;47.230;39.620;2023-03-23T08:48:00;36.38;;;13.73;;
75280;SDS011;63874;47.230;39.620;2023-03-23T08:50:32;41.88;;;13.57;;
75280;SDS011;63874;47.230;39.620;2023-03-23T08:53:13;51.65;;;12.35;;
75280;SDS011;63874;47.230;39.620;2023-03-23T08:55:42;37.03;;;12.57;;
75280;SDS011;63874;47.230;39.620;2023-03-23T08:58:26;46.70;;;13.93;;
75280;SDS011;63874;47.230;39.620;2023-03-23T09:03:59;44.38;;;13.25;;
75280;SDS011;63874;47.230;39.620;2023-03-23T09:06:35;44.47;;;15.80;;
75280;SDS011;63874;47.230;39.620;2023-03-23T09:09:02;40.65;;;13.32;;
75280;SDS011;63874;47.230;39.620;2023-03-23T09:11:33;37.78;;;12.25;;
75280;SDS011;63874;47.230;39.620;2023-03-23T09:13:59;30.83;;;13.98;;
75280;SDS011;63874;47.230;39.620;2023-03-23T09:16:26;42.08;;;12.57;;
75280;SDS011;63874;47.230;39.620;2023-03-23T09:18:53;39.90;;;14.25;;
75280;SDS011;63874;47.230;39.620;2023-03-23T09:21:22;43.20;;;13.68;;
75280;SDS011;63874;47.230;39.620;2023-03-23T09:23:50;41.83;;;12.15;;
75280;SDS011;63874;47.230;39.620;2023-03-23T09:26:16;38.17;;;12.02;;
75280;SDS011;63874;47.230;39.620;2023-03-23T09:28:43;34.97;;;13.07;;
75280;SDS011;63874;47.230;39.620;2023-03-23T09:31:10;39.38;;;12.40;;
75280;SDS011;63874;47.230;39.620;2023-03-23T09:33:37;35.22;;;11.18;;
75280;SDS011;63874;47.230;39.620;2023-03-23T09:36:04;35.50;;;11.27;;
75280;SDS011;63874;47.230;39.620;2023-03-23T09:38:33;41.70;;;11.15;;
75280;SDS011;63874;47.230;39.620;2023-03-23T09:41:19;35.50;;;12.13;;
75280;SDS011;63874;47.230;39.620;2023-03-23T09:43:58;34.38;;;12.02;;
75280;SDS011;63874;47.230;39.620;2023-03-23T09:49:26;38.47;;;14.57;;
75280;SDS011;63874;47.230;39.620;2023-03-23T09:51:59;38.40;;;13.48;;
75280;SDS011;63874;47.230;39.620;2023-03-23T09:54:34;46.03;;;14.25;;
75280;SDS011;63874;47.230;39.620;2023-03-23T09:57:49;46.50;;;11.60;;
75280;SDS011;63874;47.230;39.620;2023-03-23T10:00:15;44.00;;;17.15;;
75280;SDS011;63874;47.230;39.620;2023-03-23T10:03:18;33.78;;;12.07;;
75280;SDS011;63874;47.230;39.620;2023-03-23T10:05:51;31.92;;;11.75;;
75280;SDS011;63874;47.230;39.620;2023-03-23T10:08:20;44.88;;;10.95;;
75280;SDS011;63874;47.230;39.620;2023-03-23T10:13:16;42.58;;;15.13;;
75280;SDS011;63874;47.230;39.620;2023-03-23T10:16:02;33.17;;;13.82;;
75280;SDS011;63874;47.230;39.620;2023-03-23T10:18:36;33.38;;;11.40;;
75280;SDS011;63874;47.230;39.620;2023-03-23T10:21:06;37.70;;;12.10;;
75280;SDS011;63874;47.230;39.620;2023-03-23T10:23:44;33.58;;;13.02;;
75280;SDS011;63874;47.230;39.620;2023-03-23T10:29:17;33.17;;;11.50;;
75280;SDS011;63874;47.230;39.620;2023-03-23T10:32:16;39.17;;;11.75;;
75280;SDS011;63874;47.230;39.620;2023-03-23T10:37:27;35.33;;;11.68;;
75280;SDS011;63874;47.230;39.620;2023-03-23T10:39:54;34.65;;;10.88;;
75280;SDS011;63874;47.230;39.620;2023-03-23T10:42:28;31.08;;;10.82;;
75280;SDS011;63874;47.230;39.620;2023-03-23T10:44:59;38.17;;;14.88;;
75280;SDS011;63874;47.230;39.620;2023-03-23T10:47:36;37.47;;;14.10;;
75280;SDS011;63874;47.230;39.620;2023-03-23T10:50:06;38.17;;;11.55;;
75280;SDS011;63874;47.230;39.620;2023-03-23T10:52:39;40.45;;;11.90;;
75280;SDS011;63874;47.230;39.620;2023-03-23T10:55:08;36.55;;;12.57;;
75280;SDS011;63874;47.230;39.620;2023-03-23T10:57:38;26.98;;;12.02;;
75280;SDS011;63874;47.230;39.620;2023-03-23T11:00:07;51.92;;;11.02;;
75280;SDS011;63874;47.230;39.620;2023-03-23T11:02:46;37.13;;;10.70;;
75280;SDS011;63874;47.230;39.620;2023-03-23T11:05:26;32.83;;;11.45;;
75280;SDS011;63874;47.230;39.620;2023-03-23T11:08:03;29.70;;;11.68;;
75280;SDS011;63874;47.230;39.620;2023-03-23T11:10:47;33.47;;;11.10;;
75280;SDS011;63874;47.230;39.620;2023-03-23T11:13:16;37.72;;;14.00;;
75280;SDS011;63874;47.230;39.620;2023-03-23T11:15:43;37.42;;;16.20;;
75280;SDS011;63874;47.230;39.620;2023-03-23T11:18:13;32.75;;;15.35;;
75280;SDS011;63874;47.230;39.620;2023-03-23T11:20:57;42.88;;;14.15;;
75280;SDS011;63874;47.230;39.620;2023-03-23T11:23:26;31.25;;;11.95;;
75280;SDS011;63874;47.230;39.620;2023-03-23T11:26:37;38.22;;;14.40;;
75280;SDS011;63874;47.230;39.620;2023-03-23T11:31:17;31.63;;;13.77;;
75280;SDS011;63874;47.230;39.620;2023-03-23T11:33:52;32.22;;;13.40;;
75280;SDS011;63874;47.230;39.620;2023-03-23T11:36:28;34.95;;;14.85;;
75280;SDS011;63874;47.230;39.620;2023-03-23T11:39:19;38.17;;;10.40;;
75280;SDS011;63874;47.230;39.620;2023-03-23T11:41:53;38.47;;;12.70;;
75280;SDS011;63874;47.230;39.620;2023-03-23T11:44:21;36.22;;;13.07;;
75280;SDS011;63874;47.230;39.620;2023-03-23T11:47:05;35.65;;;13.60;;
75280;SDS011;63874;47.230;39.620;2023-03-23T11:53:02;35.70;;;14.13;;
75280;SDS011;63874;47.230;39.620;2023-03-23T11:58:14;32.03;;;13.70;;
75280;SDS011;63874;47.230;39.620;2023-03-23T12:00:47;42.75;;;15.00;;
75280;SDS011;63874;47.230;39.620;2023-03-23T12:03:21;41.88;;;14.27;;
75280;SDS011;63874;47.230;39.620;2023-03-23T12:06:09;36.03;;;15.27;;
75280;SDS011;63874;47.230;39.620;2023-03-23T12:08:45;32.17;;;12.20;;
75280;SDS011;63874;47.230;39.620;2023-03-23T12:11:38;36.58;;;16.52;;
75280;SDS011;63874;47.230;39.620;2023-03-23T12:41:23;38.92;;;13.88;;
75280;SDS011;63874;47.230;39.620;2023-03-23T12:44:11;40.17;;;13.75;;
75280;SDS011;63874;47.230;39.620;2023-03-23T12:49:29;38.80;;;14.43;;
75280;SDS011;63874;47.230;39.620;2023-03-23T12:52:04;31.95;;;12.13;;
75280;SDS011;63874;47.230;39.620;2023-03-23T13:03:36;39.85;;;14.88;;
75280;SDS011;63874;47.230;39.620;2023-03-23T13:06:19;41.42;;;12.75;;
75280;SDS011;63874;47.230;39.620;2023-03-23T13:12:14;39.67;;;13.93;;
75280;SDS011;63874;47.230;39.620;2023-03-23T13:14:45;45.50;;;16.70;;
75280;SDS011;63874;47.230;39.620;2023-03-23T13:17:21;38.88;;;14.77;;
75280;SDS011;63874;47.230;39.620;2023-03-23T13:20:05;40.40;;;15.18;;
75280;SDS011;63874;47.230;39.620;2023-03-23T13:28:17;49.28;;;17.88;;
75280;SDS011;63874;47.230;39.620;2023-03-23T13:33:31;40.80;;;14.50;;
75280;SDS011;63874;47.230;39.620;2023-03-23T13:36:25;46.70;;;16.25;;
75280;SDS011;63874;47.230;39.620;2023-03-23T13:38:55;30.63;;;12.90;;
75280;SDS011;63874;47.230;39.620;2023-03-23T13:41:24;37.85;;;12.95;;
75280;SDS011;63874;47.230;39.620;2023-03-23T13:43:52;37.85;;;13.18;;
75280;SDS011;63874;47.230;39.620;2023-03-23T13:46:30;32.50;;;12.73;;
75280;SDS011;63874;47.230;39.620;2023-03-23T13:56:51;39.50;;;13.13;;
75280;SDS011;63874;47.230;39.620;2023-03-23T14:01:53;32.00;;;14.38;;
75280;SDS011;63874;47.230;39.620;2023-03-23T14:04:38;33.40;;;13.35;;
75280;SDS011;63874;47.230;39.620;2023-03-23T14:07:09;42.40;;;12.82;;
75280;SDS011;63874;47.230;39.620;2023-03-23T14:12:05;34.50;;;12.48;;
75280;SDS011;63874;47.230;39.620;2023-03-23T14:14:42;32.58;;;12.35;;
75280;SDS011;63874;47.230;39.620;2023-03-23T14:17:14;36.63;;;14.18;;
75280;SDS011;63874;47.230;39.620;2023-03-23T14:19:50;36.15;;;12.35;;
75280;SDS011;63874;47.230;39.620;2023-03-23T14:22:27;44.30;;;13.25;;
75280;SDS011;63874;47.230;39.620;2023-03-23T14:25:02;40.38;;;13.73;;
75280;SDS011;63874;47.230;39.620;2023-03-23T14:27:36;41.42;;;13.15;;
75280;SDS011;63874;47.230;39.620;2023-03-23T14:30:04;38.72;;;13.38;;
75280;SDS011;63874;47.230;39.620;2023-03-23T14:32:32;46.50;;;12.90;;
75280;SDS011;63874;47.230;39.620;2023-03-23T14:34:59;48.80;;;15.73;;
75280;SDS011;63874;47.230;39.620;2023-03-23T14:37:34;29.80;;;11.73;;
75280;SDS011;63874;47.230;39.620;2023-03-23T14:40:03;32.35;;;11.63;;
75280;SDS011;63874;47.230;39.620;2023-03-23T14:42:34;35.75;;;12.75;;
75280;SDS011;63874;47.230;39.620;2023-03-23T14:45:03;36.30;;;12.45;;
75280;SDS011;63874;47.230;39.620;2023-03-23T14:50:00;36.90;;;12.45;;
75280;SDS011;63874;47.230;39.620;2023-03-23T14:52:32;41.83;;;12.50;;
75280;SDS011;63874;47.230;39.620;2023-03-23T14:55:16;37.78;;;12.10;;
75280;SDS011;63874;47.230;39.620;2023-03-23T14:57:48;34.33;;;12.50;;
75280;SDS011;63874;47.230;39.620;2023-03-23T15:00:29;37.15;;;12.90;;
75280;SDS011;63874;47.230;39.620;2023-03-23T15:03:02;36.78;;;14.20;;
75280;SDS011;63874;47.230;39.620;2023-03-23T15:05:31;45.33;;;12.65;;
75280;SDS011;63874;47.230;39.620;2023-03-23T15:08:04;37.05;;;12.55;;
75280;SDS011;63874;47.230;39.620;2023-03-23T15:10:33;34.50;;;11.85;;
75280;SDS011;63874;47.230;39.620;2023-03-23T15:12:59;36.53;;;12.88;;
75280;SDS011;63874;47.230;39.620;2023-03-23T15:15:27;38.15;;;12.77;;
75280;SDS011;63874;47.230;39.620;2023-03-23T15:17:57;43.92;;;16.02;;
75280;SDS011;63874;47.230;39.620;2023-03-23T15:20:27;39.72;;;13.57;;
75280;SDS011;63874;47.230;39.620;2023-03-23T15:23:07;47.83;;;15.80;;
75280;SDS011;63874;47.230;39.620;2023-03-23T15:25:34;43.08;;;14.05;;
75280;SDS011;63874;47.230;39.620;2023-03-23T15:28:22;39.30;;;14.35;;
75280;SDS011;63874;47.230;39.620;2023-03-23T15:30:56;44.67;;;14.75;;
75280;SDS011;63874;47.230;39.620;2023-03-23T15:33:25;38.78;;;12.57;;
75280;SDS011;63874;47.230;39.620;2023-03-23T15:35:53;42.85;;;13.15;;
75280;SDS011;63874;47.230;39.620;2023-03-23T15:38:25;40.33;;;13.98;;
75280;SDS011;63874;47.230;39.620;2023-03-23T15:40:55;46.95;;;15.13;;
75280;SDS011;63874;47.230;39.620;2023-03-23T15:43:25;47.05;;;13.40;;
75280;SDS011;63874;47.230;39.620;2023-03-23T15:48:26;52.47;;;13.95;;
75280;SDS011;63874;47.230;39.620;2023-03-23T15:50:53;38.00;;;13.60;;
75280;SDS011;63874;47.230;39.620;2023-03-23T15:53:26;45.45;;;13.70;;
75280;SDS011;63874;47.230;39.620;2023-03-23T15:55:55;49.90;;;17.08;;
75280;SDS011;63874;47.230;39.620;2023-03-23T15:58:23;52.35;;;19.55;;
75280;SDS011;63874;47.230;39.620;2023-03-23T16:00:49;41.58;;;18.80;;
75280;SDS011;63874;47.230;39.620;2023-03-23T16:03:19;46.58;;;16.50;;
75280;SDS011;63874;47.230;39.620;2023-03-23T16:05:52;54.30;;;16.75;;
75280;SDS011;63874;47.230;39.620;2023-03-23T16:08:19;43.15;;;14.50;;
75280;SDS011;63874;47.230;39.620;2023-03-23T16:10:46;50.13;;;15.48;;
75280;SDS011;63874;47.230;39.620;2023-03-23T16:13:12;51.65;;;17.58;;
75280;SDS011;63874;47.230;39.620;2023-03-23T16:15:39;49.88;;;15.98;;
75280;SDS011;63874;47.230;39.620;2023-03-23T16:18:05;54.15;;;18.05;;
75280;SDS011;63874;47.230;39.620;2023-03-23T16:20:31;54.38;;;18.40;;
75280;SDS011;63874;47.230;39.620;2023-03-23T16:22:57;47.50;;;17.13;;
75280;SDS011;63874;47.230;39.620;2023-03-23T16:25:23;61.42;;;17.05;;
75280;SDS011;63874;47.230;39.620;2023-03-23T16:27:49;55.95;;;18.05;;
75280;SDS011;63874;47.230;39.620;2023-03-23T16:30:17;52.78;;;17.02;;
75280;SDS011;63874;47.230;39.620;2023-03-23T16:32:45;50.63;;;17.70;;
75280;SDS011;63874;47.230;39.620;2023-03-23T16:35:12;47.15;;;15.82;;
75280;SDS011;63874;47.230;39.620;2023-03-23T16:37:42;49.58;;;16.15;;
75280;SDS011;63874;47.230;39.620;2023-03-23T16:40:13;55.95;;;17.85;;
75280;SDS011;63874;47.230;39.620;2023-03-23T16:42:41;58.72;;;17.63;;
75280;SDS011;63874;47.230;39.620;2023-03-23T16:45:07;58.60;;;18.40;;
75280;SDS011;63874;47.230;39.620;2023-03-23T16:47:34;65.38;;;22.80;;
75280;SDS011;63874;47.230;39.620;2023-03-23T16:50:00;52.13;;;21.02;;
75280;SDS011;63874;47.230;39.620;2023-03-23T16:52:26;61.72;;;21.27;;